You are not logged in, Click here to log in
ICAO: YSSY Country: 新南威爾斯州雪梨馬斯覺
Latitude: -33.9399 Longitude: 151.175
Total Arrivals: 25 Total Departures: 23
Latest Arrival: FS06 (YBCS-YSSY)ALAN. LIU Latest Departure: NZ884 (YSSY-NZCH)ALAN. LIU
Scenery:
METAR : YSSY 151830Z 34005KT CAVOK 16/07 Q1015

金斯福德·史密斯國際機場(雪梨)SYD